createdAt,value
2022-10-05T00:01:24.860Z,11.77
2022-10-05T00:04:38.489Z,13.57
2022-10-05T00:07:20.894Z,17.83
2022-10-05T00:10:12.467Z,20.02
2022-10-05T00:12:59.497Z,22.90
2022-10-05T00:15:39.614Z,22.92
2022-10-05T00:18:28.507Z,22.30
2022-10-05T00:21:08.555Z,22.35
2022-10-05T00:23:56.484Z,23.00
2022-10-05T00:26:39.690Z,22.80
2022-10-05T00:29:30.480Z,19.67
2022-10-05T00:32:10.973Z,19.45
2022-10-05T00:34:57.439Z,18.85
2022-10-05T00:37:37.574Z,18.50
2022-10-05T00:40:39.544Z,19.33
2022-10-05T00:43:31.623Z,18.80
2022-10-05T00:46:32.455Z,17.08
2022-10-05T00:49:24.532Z,16.75
2022-10-05T00:52:54.471Z,15.43
2022-10-05T00:56:00.432Z,15.98
2022-10-05T00:59:09.419Z,24.55
2022-10-05T01:02:09.614Z,37.08
2022-10-05T01:05:21.410Z,17.15
2022-10-05T01:08:23.371Z,15.65
2022-10-05T01:11:06.532Z,13.57
2022-10-05T01:14:17.385Z,13.02
2022-10-05T01:17:36.365Z,17.58
2022-10-05T01:20:29.386Z,15.23
2022-10-05T01:23:39.777Z,10.90
2022-10-05T01:26:46.661Z,11.05
2022-10-05T01:29:47.882Z,10.07
2022-10-05T01:32:56.395Z,11.02
2022-10-05T01:36:21.187Z,11.85
2022-10-05T01:39:17.331Z,11.75
2022-10-05T01:42:10.367Z,12.05
2022-10-05T01:45:13.503Z,12.95
2022-10-05T01:48:09.327Z,12.32
2022-10-05T01:51:14.368Z,12.88
2022-10-05T01:54:12.723Z,13.93
2022-10-05T01:57:14.342Z,13.65
2022-10-05T02:00:08.354Z,13.52
2022-10-05T02:03:02.614Z,12.25
2022-10-05T02:06:04.340Z,12.77
2022-10-05T02:08:59.361Z,12.70
2022-10-05T02:14:37.346Z,13.82
2022-10-05T02:17:23.869Z,21.50
2022-10-05T02:20:19.283Z,15.30
2022-10-05T02:23:06.139Z,15.10
2022-10-05T02:25:58.325Z,14.40
2022-10-05T02:28:51.446Z,15.57
2022-10-05T02:31:38.397Z,13.88
2022-10-05T02:34:28.778Z,13.35
2022-10-05T02:38:14.282Z,13.63
2022-10-05T02:41:25.303Z,14.13
2022-10-05T02:44:35.276Z,12.25
2022-10-05T02:47:53.302Z,12.25
2022-10-05T02:51:05.282Z,12.98
2022-10-05T02:54:22.265Z,11.75
2022-10-05T02:57:16.462Z,14.20
2022-10-05T03:00:18.239Z,12.10
2022-10-05T03:03:24.314Z,11.30
2022-10-05T03:26:16.560Z,13.90
2022-10-05T03:29:09.154Z,12.45
2022-10-05T03:32:35.554Z,11.80
2022-10-05T03:35:27.610Z,10.85
2022-10-05T03:38:31.515Z,11.07
2022-10-05T03:41:32.005Z,10.70
2022-10-05T03:44:43.509Z,10.25
2022-10-05T03:47:51.515Z,9.75
2022-10-05T03:50:43.663Z,7.93
2022-10-05T03:53:36.499Z,7.18
2022-10-05T03:56:24.585Z,6.97
2022-10-05T03:59:27.729Z,6.65
2022-10-05T04:02:13.682Z,6.35
2022-10-05T04:05:19.449Z,5.80
2022-10-05T04:08:09.453Z,4.88
2022-10-05T04:10:59.442Z,4.63
2022-10-05T04:13:54.587Z,4.20
2022-10-05T04:16:58.462Z,4.70
2022-10-05T04:20:03.506Z,3.80
2022-10-05T04:23:10.252Z,4.65
2022-10-05T04:26:05.435Z,5.60
2022-10-05T04:28:57.456Z,5.00
2022-10-05T04:31:53.624Z,6.00
2022-10-05T04:35:00.465Z,5.28
2022-10-05T04:38:04.427Z,5.50
2022-10-05T04:41:10.454Z,6.77
2022-10-05T04:44:12.578Z,7.72
2022-10-05T04:46:59.466Z,8.57
2022-10-05T04:50:12.919Z,8.10
2022-10-05T04:53:37.418Z,7.80
2022-10-05T04:56:41.437Z,7.30
2022-10-05T04:59:47.398Z,7.35
2022-10-05T05:02:34.443Z,7.15
2022-10-05T05:06:16.036Z,8.38
2022-10-05T05:09:31.384Z,7.32
2022-10-05T05:12:39.714Z,6.80
2022-10-05T05:15:53.437Z,7.07
2022-10-05T05:19:02.385Z,7.40
2022-10-05T05:21:58.868Z,10.90
2022-10-05T05:24:57.381Z,10.18
2022-10-05T05:27:47.571Z,10.02
2022-10-05T05:30:54.415Z,11.02
2022-10-05T05:33:54.388Z,11.93
2022-10-05T05:36:53.388Z,10.85
2022-10-05T05:39:53.506Z,8.88
2022-10-05T05:42:57.340Z,9.95
2022-10-05T05:46:05.345Z,7.57
2022-10-05T05:48:47.480Z,8.90
2022-10-05T05:51:53.343Z,7.63
2022-10-05T05:54:42.425Z,7.50
2022-10-05T05:57:39.326Z,7.65
2022-10-05T06:00:43.169Z,8.25
2022-10-05T06:03:46.284Z,7.90
2022-10-05T06:06:39.373Z,7.00
2022-10-05T06:09:41.414Z,7.57
2022-10-05T06:12:39.322Z,7.00
2022-10-05T06:15:39.414Z,6.47
2022-10-05T06:18:28.322Z,6.40
2022-10-05T06:21:22.469Z,5.97
2022-10-05T06:24:19.344Z,5.78
2022-10-05T06:27:40.305Z,5.13
2022-10-05T06:30:20.969Z,5.35
2022-10-05T06:33:33.293Z,3.75
2022-10-05T06:36:39.335Z,4.43
2022-10-05T06:39:22.433Z,4.10
2022-10-05T06:42:22.305Z,4.43
2022-10-05T06:45:53.334Z,5.30
2022-10-05T06:49:24.229Z,4.93
2022-10-05T06:52:45.374Z,4.97
2022-10-05T06:55:48.279Z,6.63
2022-10-05T06:59:06.289Z,74.90
2022-10-05T07:02:11.308Z,10.20
2022-10-05T07:05:02.382Z,7.35
2022-10-05T07:08:05.234Z,7.13
2022-10-05T07:11:22.364Z,8.27
2022-10-05T07:14:18.254Z,8.32
2022-10-05T07:17:33.237Z,8.32
2022-10-05T07:20:23.248Z,7.13
2022-10-05T07:23:42.337Z,7.13
2022-10-05T07:26:48.523Z,7.70
2022-10-05T07:29:35.358Z,7.50
2022-10-05T07:32:22.259Z,9.98
2022-10-05T07:35:50.247Z,7.63
2022-10-05T07:38:41.451Z,9.15
2022-10-05T07:41:58.241Z,8.98
2022-10-05T07:44:47.098Z,7.18
2022-10-05T07:47:52.202Z,8.75
2022-10-05T07:50:46.244Z,6.85
2022-10-05T07:53:39.212Z,6.43
2022-10-05T07:56:32.165Z,7.25
2022-10-05T07:59:39.181Z,6.13
2022-10-05T08:02:41.309Z,5.60
2022-10-05T08:05:37.186Z,5.30
2022-10-05T08:08:35.214Z,6.20
2022-10-05T08:11:33.166Z,5.10
2022-10-05T08:14:30.197Z,5.55
2022-10-05T08:17:49.227Z,5.50
2022-10-05T08:20:39.370Z,4.15
2022-10-05T08:23:51.179Z,4.65
2022-10-05T08:27:02.160Z,4.90
2022-10-05T08:30:07.149Z,5.28
2022-10-05T08:32:58.149Z,3.78
2022-10-05T08:35:51.337Z,4.10
2022-10-05T08:38:42.154Z,4.50
2022-10-05T08:41:55.193Z,3.95
2022-10-05T08:45:12.117Z,3.90
2022-10-05T08:48:11.184Z,3.72
2022-10-05T08:51:39.175Z,3.47
2022-10-05T08:54:46.732Z,3.03
2022-10-05T08:57:57.141Z,2.55
2022-10-05T09:01:21.231Z,1.80
2022-10-05T09:04:20.068Z,1.85
2022-10-05T09:07:37.979Z,1.50
2022-10-05T09:10:37.120Z,1.38
2022-10-05T09:13:26.238Z,1.10
2022-10-05T09:16:22.213Z,1.23
2022-10-05T09:19:51.154Z,0.90
2022-10-05T09:22:54.584Z,1.50
2022-10-05T09:26:22.142Z,1.40
2022-10-05T09:29:33.138Z,1.17
2022-10-05T09:32:19.247Z,0.90
2022-10-05T09:35:44.095Z,0.73
2022-10-05T09:38:43.110Z,0.95
2022-10-05T09:41:29.336Z,0.75
2022-10-05T09:44:41.058Z,1.00
2022-10-05T09:47:56.080Z,0.80
2022-10-05T09:50:45.304Z,4.55
2022-10-05T09:54:19.115Z,2.05
2022-10-05T09:57:22.193Z,1.75
2022-10-05T10:00:36.115Z,2.47
2022-10-05T10:04:00.043Z,1.85
2022-10-05T10:07:24.211Z,1.70
2022-10-05T10:10:13.066Z,1.70
2022-10-05T10:13:02.800Z,1.88
2022-10-05T10:15:49.124Z,2.58
2022-10-05T10:19:06.906Z,2.05
2022-10-05T10:22:26.053Z,1.92
2022-10-05T10:25:38.094Z,1.80
2022-10-05T10:28:37.790Z,2.60
2022-10-05T10:32:02.039Z,1.65
2022-10-05T10:35:40.028Z,2.05
2022-10-05T10:38:23.833Z,1.90
2022-10-05T10:41:55.028Z,1.35
2022-10-05T10:44:59.022Z,1.55
2022-10-05T10:48:25.409Z,1.65
2022-10-05T10:51:19.746Z,2.00
2022-10-05T10:57:17.121Z,1.40
2022-10-05T11:00:00.170Z,1.70
2022-10-05T11:03:15.119Z,1.17
2022-10-05T11:06:33.997Z,1.20
2022-10-05T11:09:41.971Z,2.65
2022-10-05T11:12:59.992Z,1.63
2022-10-05T11:19:05.012Z,1.40
2022-10-05T11:22:10.037Z,1.30
2022-10-05T11:25:39.004Z,1.48
2022-10-05T11:28:53.027Z,1.30
2022-10-05T11:31:42.137Z,1.30
2022-10-05T11:34:41.043Z,0.77
2022-10-05T11:37:55.206Z,0.88
2022-10-05T11:40:57.039Z,0.98
2022-10-05T11:43:55.138Z,0.90
2022-10-05T11:47:00.003Z,1.10
2022-10-05T11:50:05.683Z,1.23
2022-10-05T11:53:00.005Z,1.13
2022-10-05T11:56:00.010Z,1.40
2022-10-05T11:58:58.618Z,1.10
2022-10-05T12:01:50.936Z,0.80
2022-10-05T12:04:47.066Z,0.90
2022-10-05T12:08:03.945Z,0.88
2022-10-05T12:11:16.927Z,0.88
2022-10-05T12:14:15.973Z,0.95
2022-10-05T12:17:07.429Z,0.70
2022-10-05T12:20:01.957Z,0.90
2022-10-05T12:22:50.809Z,0.70
2022-10-05T12:25:47.933Z,0.82
2022-10-05T12:28:37.348Z,0.60
2022-10-05T12:31:53.927Z,0.70
2022-10-05T12:35:05.923Z,0.70
2022-10-05T12:37:52.288Z,0.50
2022-10-05T12:40:47.942Z,0.70
2022-10-05T12:44:39.885Z,0.82
2022-10-05T12:47:53.913Z,0.60
2022-10-05T12:51:02.067Z,0.80
2022-10-05T12:54:00.937Z,0.82
2022-10-05T12:57:15.825Z,0.70
2022-10-05T13:00:23.506Z,1.20
2022-10-05T13:03:24.927Z,0.65
2022-10-05T13:06:27.343Z,0.90
2022-10-05T13:09:20.958Z,0.73
2022-10-05T13:12:16.893Z,0.80
2022-10-05T13:15:13.202Z,0.70
2022-10-05T13:18:14.875Z,1.00
2022-10-05T13:21:27.089Z,0.80
2022-10-05T13:24:30.910Z,0.63
2022-10-05T13:27:28.425Z,1.08
2022-10-05T13:30:20.906Z,0.80
2022-10-05T13:33:26.932Z,0.70
2022-10-05T13:36:35.023Z,0.63
2022-10-05T13:39:36.914Z,0.55
2022-10-05T13:42:25.579Z,0.50
2022-10-05T13:45:33.952Z,0.40
2022-10-05T13:48:52.981Z,0.50
2022-10-05T13:51:50.835Z,0.75
2022-10-05T13:54:52.007Z,0.75
2022-10-05T13:57:51.804Z,1.77
2022-10-05T14:00:39.839Z,0.85
2022-10-05T14:03:33.966Z,0.70
2022-10-05T14:06:37.917Z,0.60
2022-10-05T14:09:22.143Z,0.63
2022-10-05T14:12:18.983Z,0.60
2022-10-05T14:15:20.004Z,0.50
2022-10-05T14:18:06.905Z,0.80
2022-10-05T14:21:03.049Z,0.80
2022-10-05T14:23:49.857Z,0.70
2022-10-05T14:26:31.802Z,0.70
2022-10-05T14:29:27.826Z,0.88
2022-10-05T14:32:23.840Z,1.15
2022-10-05T14:35:09.993Z,1.10
2022-10-05T14:38:02.901Z,1.05
2022-10-05T14:40:44.913Z,0.60
2022-10-05T14:43:31.788Z,1.10
2022-10-05T14:46:38.807Z,1.08
2022-10-05T14:49:49.857Z,1.20
2022-10-05T14:52:51.637Z,1.00
2022-10-05T14:55:55.795Z,1.02
2022-10-05T14:58:41.806Z,1.20
2022-10-05T15:01:42.895Z,1.60
2022-10-05T15:04:37.920Z,1.30
2022-10-05T15:07:30.842Z,1.33
2022-10-05T15:10:36.948Z,2.00
2022-10-05T15:27:50.527Z,1.87
2022-10-05T15:30:35.977Z,1.98
2022-10-05T15:33:48.394Z,1.77
2022-10-05T15:36:48.004Z,2.30
2022-10-05T15:39:54.330Z,1.90
2022-10-05T15:42:46.531Z,2.67
2022-10-05T15:45:44.363Z,1.88
2022-10-05T15:49:00.324Z,3.08
2022-10-05T15:51:57.262Z,2.17
2022-10-05T15:55:21.315Z,2.00
2022-10-05T15:58:31.594Z,2.80
2022-10-05T16:01:47.627Z,2.88
2022-10-05T16:04:43.329Z,3.13
2022-10-05T16:07:50.986Z,3.80
2022-10-05T16:10:37.612Z,3.20
2022-10-05T16:13:40.356Z,3.45
2022-10-05T16:17:12.819Z,3.50
2022-10-05T16:21:00.273Z,3.53
2022-10-05T16:23:48.385Z,4.18
2022-10-05T16:27:13.382Z,3.30
2022-10-05T16:30:01.278Z,4.18
2022-10-05T16:33:02.249Z,2.97
2022-10-05T16:36:03.263Z,4.18
2022-10-05T16:38:58.224Z,3.80
2022-10-05T16:42:08.274Z,3.13
2022-10-05T16:45:06.950Z,3.40
2022-10-05T16:48:03.297Z,3.60
2022-10-05T16:51:04.073Z,3.75
2022-10-05T16:53:56.229Z,4.93
2022-10-05T16:57:25.271Z,5.70
2022-10-05T17:00:15.974Z,8.20
2022-10-05T17:03:20.247Z,6.55
2022-10-05T17:06:10.257Z,7.55
2022-10-05T17:09:26.219Z,5.65
2022-10-05T17:12:25.194Z,4.65
2022-10-05T17:15:27.376Z,5.20
2022-10-05T17:18:10.767Z,5.78
2022-10-05T17:21:22.233Z,5.00
2022-10-05T17:24:23.311Z,4.50
2022-10-05T17:27:27.330Z,4.43
2022-10-05T17:30:44.366Z,7.05
2022-10-05T17:33:37.216Z,6.90
2022-10-05T17:36:32.196Z,10.48
2022-10-05T17:39:28.250Z,10.68
2022-10-05T17:42:41.199Z,10.80
2022-10-05T17:45:21.546Z,9.65
2022-10-05T17:48:12.178Z,8.77
2022-10-05T17:51:18.185Z,7.60
2022-10-05T17:54:17.221Z,6.82
2022-10-05T17:57:04.354Z,7.05
2022-10-05T17:59:57.151Z,6.43
2022-10-05T18:02:42.860Z,6.57
2022-10-05T18:05:39.180Z,5.72
2022-10-05T18:08:30.247Z,5.90
2022-10-05T18:11:24.258Z,5.45
2022-10-05T18:14:31.197Z,7.35
2022-10-05T18:17:19.221Z,5.97
2022-10-05T18:20:33.164Z,5.72
2022-10-05T18:23:13.533Z,5.90
2022-10-05T18:26:11.158Z,6.85
2022-10-05T18:29:43.155Z,5.68
2022-10-05T18:32:41.131Z,8.45
2022-10-05T18:35:40.202Z,9.35
2022-10-05T18:38:36.154Z,8.50
2022-10-05T18:41:31.947Z,7.75
2022-10-05T18:44:37.166Z,7.82
2022-10-05T18:47:40.207Z,8.30
2022-10-05T18:50:55.118Z,8.15
2022-10-05T18:54:33.070Z,10.15
2022-10-05T18:57:42.088Z,9.68
2022-10-05T19:00:27.206Z,9.35
2022-10-05T19:03:30.056Z,8.90
2022-10-05T19:06:26.214Z,8.98
2022-10-05T19:09:17.087Z,8.38
2022-10-05T19:12:07.062Z,9.80
2022-10-05T19:15:07.033Z,7.93
2022-10-05T19:18:08.071Z,8.20
2022-10-05T19:21:28.066Z,7.97
2022-10-05T19:24:46.175Z,6.82
2022-10-05T19:27:41.031Z,7.07
2022-10-05T19:33:27.584Z,6.00
2022-10-05T19:39:17.298Z,5.50
2022-10-05T19:42:04.049Z,5.63
2022-10-05T19:44:58.196Z,5.82
2022-10-05T19:48:00.027Z,11.60
2022-10-05T19:50:53.717Z,8.35
2022-10-05T19:53:44.058Z,5.88
2022-10-05T19:56:31.227Z,5.82
2022-10-05T19:59:32.029Z,5.95
2022-10-05T20:02:23.019Z,5.45
2022-10-05T20:05:19.996Z,5.15
2022-10-05T20:08:01.259Z,5.40
2022-10-05T20:10:47.969Z,5.63
2022-10-05T20:13:35.017Z,10.75
2022-10-05T20:16:49.024Z,11.77
2022-10-05T20:19:53.613Z,11.77
2022-10-05T20:22:53.007Z,11.38
2022-10-05T20:25:49.980Z,10.38
2022-10-05T20:28:37.999Z,10.95
2022-10-05T20:31:27.084Z,9.55
2022-10-05T20:34:14.992Z,10.73
2022-10-05T20:37:03.002Z,11.27
2022-10-05T20:39:43.897Z,10.25
2022-10-05T20:42:31.960Z,9.07
2022-10-05T20:45:13.047Z,10.13
2022-10-05T20:47:59.937Z,9.05
2022-10-05T20:50:47.489Z,9.68
2022-10-05T20:53:26.941Z,8.45
2022-10-05T20:56:07.309Z,8.40
2022-10-05T20:58:53.941Z,7.70
2022-10-05T21:01:41.265Z,8.18
2022-10-05T21:04:22.991Z,7.57
2022-10-05T21:07:11.942Z,7.32
2022-10-05T21:09:58.947Z,6.13
2022-10-05T21:12:45.933Z,5.60
2022-10-05T21:15:26.025Z,5.47
2022-10-05T21:18:12.915Z,6.75
2022-10-05T21:20:53.050Z,5.85
2022-10-05T21:23:40.908Z,7.72
2022-10-05T21:26:21.998Z,9.20
2022-10-05T21:29:12.275Z,9.40
2022-10-05T21:31:53.096Z,10.10
2022-10-05T21:34:39.910Z,9.23
2022-10-05T21:37:20.062Z,9.98
2022-10-05T21:40:06.879Z,9.73
2022-10-05T21:42:46.959Z,9.48
2022-10-05T21:45:34.937Z,8.55
2022-10-05T21:48:14.975Z,6.68
2022-10-05T21:51:01.878Z,7.10
2022-10-05T21:53:52.915Z,5.72
2022-10-05T21:56:37.950Z,4.57
2022-10-05T21:59:26.860Z,5.00
2022-10-05T22:02:07.329Z,4.45
2022-10-05T22:04:53.868Z,4.80
2022-10-05T22:07:35.132Z,4.47
2022-10-05T22:10:21.875Z,4.45
2022-10-05T22:13:03.557Z,4.70
2022-10-05T22:15:49.878Z,4.70
2022-10-05T22:18:37.341Z,5.05
2022-10-05T22:21:18.819Z,6.25
2022-10-05T22:24:00.276Z,7.35
2022-10-05T22:26:47.874Z,7.78
2022-10-05T22:29:31.543Z,8.05
2022-10-05T22:32:17.823Z,7.97
2022-10-05T22:35:09.115Z,8.77
2022-10-05T22:37:51.933Z,8.32
2022-10-05T22:40:38.922Z,8.75
2022-10-05T22:43:18.939Z,8.82
2022-10-05T22:46:05.866Z,7.72
2022-10-05T22:48:46.924Z,8.48
2022-10-05T22:51:33.906Z,8.55
2022-10-05T22:54:14.304Z,8.40
2022-10-05T22:57:00.795Z,7.97
2022-10-05T22:59:40.873Z,8.93
2022-10-05T23:02:27.866Z,7.22
2022-10-05T23:05:08.313Z,6.80
2022-10-05T23:07:54.791Z,7.10
2022-10-05T23:10:34.938Z,6.13
2022-10-05T23:13:21.785Z,5.78
2022-10-05T23:16:09.830Z,6.93
2022-10-05T23:18:58.780Z,6.63
2022-10-05T23:21:45.780Z,5.80
2022-10-05T23:24:26.139Z,5.85
2022-10-05T23:27:12.768Z,6.47
2022-10-05T23:29:59.757Z,7.75
2022-10-05T23:32:45.040Z,10.10
2022-10-05T23:35:31.747Z,12.82
2022-10-05T23:38:11.859Z,15.25
2022-10-05T23:40:58.776Z,11.88
2022-10-05T23:43:45.745Z,11.98
2022-10-05T23:46:26.244Z,9.35
2022-10-05T23:49:12.695Z,8.38
2022-10-05T23:51:59.726Z,7.53
2022-10-05T23:54:39.795Z,6.82
2022-10-05T23:57:26.722Z,6.25
